Weather observations for the past three days for
Broomfield / Jeffco
Imperial (Metric)
Date Time (mdt) Wind (mph) Vis. (mi.) Weather Sky Cond. Temperature (ºF) Relative Humidity Wind Chill (°F) Heat Index (°F) Pressure Precipitation (in)
Air Dwpt 6 hour altimeter (in) sea level (mb) 1 hr 3 hr 6 hr
Max. Min.
30 23:35 W 17 10.00 Partly Cloudy SCT080 SCT095 SCT120 69.8 44.6 40% 30.18 0.0
30 22:55 W 21 G 26 10.00 Mostly Cloudy and Breezy BKN110 73.4 42.8 33% 30.2 0.0
30 22:35 W 15 G 20 10.00 Overcast OVC110 68 50 53% 30.2 0.0
30 22:15 W 8 10.00 Overcast OVC110 66.2 53.6 64% 30.18 0.0
30 21:55 SW 5 10.00 Mostly Cloudy BKN120 66.2 53.6 64% 30.17 0.0
30 21:35 W 6 10.00 Mostly Cloudy BKN120 66.2 53.6 64% 30.17 0.0
30 21:15 W 8 10.00 Fair CLR 64.4 53.6 68% 30.17 0.0
30 20:55 SW 6 10.00 Fair CLR 64.4 51.8 64% 30.16 0.0
30 20:35 SW 6 10.00 Fair CLR 68 53.6 60% 30.16 0.0
30 20:15 S 6 10.00 Fair CLR 68 53.6 60% 30.15 0.0
30 19:55 SW 7 10.00 Clear SKC 69.8 53.6 57% 30.15 0.0
30 18:45 S 8 10.00 Fair CLR 71.6 51.8 50% 30.15 0.0
30 17:45 SE 6 10.00 Fair CLR 75.2 46.4 36% 77 30.15 0.0
30 16:47 E 6 10.00 Mostly Cloudy BKN120 75.2 46.4 36% 77 30.14 0.0
30 15:45 W 7 G 22 10.00 Overcast SCT060 BKN100 OVC120 69.8 46.4 43% 30.17 0.0
30 14:50 NW 25 G 41 10.00 Light Rain and Breezy OVC080 64.4 51.8 64% 30.17 0.0
30 13:45 Calm 10.00 Showers in Vicinity OVC110 82.4 42.8 25% 80 30.12 0.0
30 12:45 SE 10 10.00 Partly Cloudy SCT100 82.4 48.2 30% 81 30.11 0.0
30 11:49 E 9 10.00 Partly Cloudy SCT100 80.6 46.4 30% 80 30.12 0.0
30 10:45 NW 6 10.00 Partly Cloudy SCT100 80.6 42.8 26% 79 30.13 0.0
30 09:48 N 8 G 22 10.00 Mostly Cloudy SCT100 BKN200 78.8 42.8 28% 78 30.14 0.0
30 08:45 NW 8 10.00 Mostly Cloudy SCT100 BKN200 73.4 44.6 36% 30.13 0.0
30 07:45 Calm 10.00 Mostly Cloudy BKN100 BKN180 68 46.4 46% 30.13 0.0
30 06:15 W 6 10.00 Partly Cloudy SCT100 66.2 42.8 43% 30.11 0.0
30 05:55 NW 3 10.00 Fair CLR 64.4 44.6 49% 30.1 0.0
30 05:35 Calm 10.00 Fair CLR 64.4 42.8 46% 30.09 0.0
30 05:25 W 3 10.00 Mostly Cloudy BKN100 BKN180 66.2 44.6 46% 30.12 0.0
30 05:15 Calm 10.00 Partly Cloudy SCT100 64.4 42.8 46% 30.1 0.0
30 04:55 Calm 10.00 Mostly Cloudy BKN100 64.4 42.8 46% 30.1 0.0
30 04:35 Calm 10.00 Partly Cloudy SCT100 68 42.8 40% 30.09 0.0
30 04:15 Calm 10.00 Fair CLR 68 42.8 40% 30.1 0.0
30 03:55 W 5 10.00 Fair CLR 69.8 42.8 38% 30.09 0.0
30 03:35 W 8 10.00 Fair CLR 69.8 41 35% 30.09 0.0
30 03:15 W 9 10.00 Fair CLR 68 42.8 40% 30.1 0.0
30 02:55 NW 6 10.00 Fair CLR 68 42.8 40% 30.09 0.0
30 02:35 W 7 10.00 Fair CLR 68 42.8 40% 30.1 0.0
30 02:15 NW 12 10.00 Fair CLR 66.2 42.8 43% 30.1 0.0
30 01:55 W 7 10.00 Fair CLR 64.4 42.8 46% 30.11 0.0
30 01:35 SW 7 10.00 Fair CLR 64.4 44.6 49% 30.11 0.0
30 01:15 W 3 10.00 Fair CLR 62.6 48.2 60% 30.11 0.0
30 00:55 SW 5 10.00 Fair CLR 66.2 48.2 52% 30.12 0.0
30 00:35 SW 3 10.00 Fair CLR 64.4 48.2 56% 30.12 0.0
30 00:15 W 5 10.00 Fair CLR 64.4 50 60% 30.13 0.0
29 23:55 Calm 10.00 Fair CLR 64.4 48.2 56% 30.14 0.0
29 23:35 SE 6 10.00 Fair CLR 66.2 48.2 52% 30.15 0.0
29 23:15 SE 3 10.00 Fair CLR 68 48.2 49% 30.15 0.0
29 22:55 SE 6 10.00 Fair CLR 68 48.2 49% 30.15 0.0
29 22:35 S 3 10.00 Fair CLR 69.8 44.6 40% 30.15 0.0
29 22:15 SW 3 10.00 Fair CLR 69.8 41 35% 30.16 0.0
29 21:55 W 14 10.00 Fair CLR 71.6 41 33% 30.16 0.0
29 21:35 W 10 10.00 Fair CLR 69.8 42.8 38% 30.15 0.0
29 21:15 NW 10 10.00 Fair CLR 71.6 42.8 36% 30.15 0.0
29 20:55 N 6 10.00 Fair CLR 71.6 46.4 41% 30.15 0.0
29 20:35 N 7 10.00 Fair CLR 71.6 48.2 44% 30.16 0.0
29 20:15 N 13 10.00 Partly Cloudy SCT110 73.4 46.4 38% 30.15 0.0
29 19:47 SE 7 10.00 Mostly Cloudy BKN120 80.6 44.6 28% 79 30.09 0.0
29 18:45 S 10 10.00 Mostly Cloudy BKN120 84.2 41 22% 82 30.09 0.0
29 17:49 S 10 10.00 Mostly Cloudy BKN120 86 42.8 22% 83 30.07 0.0
29 16:49 S 8 10.00 Showers in Vicinity BKN120 84.2 41 22% 82 30.08 0.0
29 15:50 W 28 G 38 10.00 Light Rain and Windy BKN100 82.4 42.8 25% 80 30.09 0.0
29 14:49 S 10 10.00 Fair CLR 91.4 37.4 15% 87 30.08 0.0
29 13:51 SE 7 10.00 Fair CLR 89.6 37.4 16% 86 30.1 0.0
29 12:45 SE 7 10.00 Fair CLR 89.6 37.4 16% 86 30.12 0.0
29 11:49 SE 8 10.00 Fair CLR 89.6 37.4 16% 86 30.13 0.0
29 10:49 SW 10 G 17 10.00 Fair CLR 87.8 37.4 17% 84 30.15 0.0
29 09:45 S 5 10.00 Fair CLR 84.2 42.8 23% 82 30.15 0.0
29 08:45 S 5 10.00 Fair CLR 78.8 46.4 32% 79 30.15 0.0
29 07:45 W 3 10.00 Fair CLR 75.2 42.8 31% 77 30.15 0.0
29 06:53 SW 3 10.00 Fair CLR 68 46.4 46% 30.15 0.0
29 06:15 Calm 10.00 Fair CLR 64.4 44.6 49% 30.15 0.0
29 05:55 SE 6 10.00 Fair CLR 66.2 44.6 46% 30.14 0.0
29 05:45 Calm 10.00 Fair CLR 66.2 46.4 49% 30.14 0.0
29 05:35 S 3 10.00 Fair CLR 68 44.6 43% 30.14 0.0
29 05:15 Calm 10.00 Fair CLR 69.8 41 35% 30.14 0.0
29 04:55 W 6 10.00 Fair CLR 69.8 41 35% 30.15 0.0
29 04:35 Calm 10.00 Fair CLR 69.8 41 35% 30.15 0.0
29 04:15 W 8 10.00 Fair CLR 68 41 38% 30.15 0.0
29 03:55 Calm 10.00 Fair CLR 68 42.8 40% 30.16 0.0
29 03:35 W 3 10.00 Fair CLR 71.6 39.2 31% 30.15 0.0
29 03:15 W 6 10.00 Partly Cloudy SCT120 69.8 41 35% 30.16 0.0
29 02:55 W 8 10.00 Partly Cloudy SCT120 69.8 41 35% 30.17 0.0
29 02:35 W 9 10.00 Fair CLR 68 42.8 40% 30.17 0.0
29 02:15 W 7 10.00 Fair CLR 68 44.6 43% 30.17 0.0
29 01:55 SW 5 10.00 Fair CLR 69.8 46.4 43% 30.18 0.0
29 01:35 Calm 10.00 Fair CLR 69.8 44.6 40% 30.18 0.0
29 01:15 S 6 10.00 Fair CLR 69.8 44.6 40% 30.18 0.0
29 00:55 Calm 10.00 Fair CLR 69.8 41 35% 30.18 0.0
29 00:35 Calm 10.00 Fair CLR 69.8 39.2 33% 30.18 0.0
29 00:15 W 5 10.00 Fair CLR 71.6 41 33% 30.17 0.0
28 23:55 Calm 10.00 Fair CLR 71.6 42.8 36% 30.18 0.0
28 23:35 Calm 10.00 Fair CLR 73.4 41 31% 30.18 0.0
28 23:15 NW 5 10.00 Fair CLR 77 41 28% 78 30.18 0.0
28 22:55 Calm 10.00 Partly Cloudy SCT120 77 41 28% 78 30.19 0.0
28 22:35 Calm 10.00 Partly Cloudy SCT120 77 41 28% 78 30.2 0.0
28 22:15 Calm 10.00 Fair CLR 73.4 41 31% 30.2 0.0
28 21:55 W 3 10.00 Fair CLR 75.2 41 29% 77 30.2 0.0
28 21:35 W 3 10.00 Fair CLR 77 41 28% 78 30.2 0.0
28 21:15 W 13 10.00 Fair CLR 78.8 41 26% 78 30.19 0.0
28 20:55 W 15 10.00 Fair CLR 78.8 41 26% 78 30.19 0.0
28 20:35 W 16 10.00 Fair CLR 80.6 39.2 23% 79 30.19 0.0
28 20:15 NW 17 G 23 10.00 Fair CLR 80.6 41 24% 79 30.19 0.0
28 19:45 W 23 10.00 Mostly Cloudy and Breezy SCT120 BKN150 82.4 41 23% 80 30.18 0.0
28 18:45 SE 13 10.00 Mostly Cloudy SCT120 BKN150 84.2 44.6 25% 82 30.16 0.0
28 17:49 S 9 G 28 10.00 Mostly Cloudy SCT120 BKN150 84.2 41 22% 82 30.17 0.0
28 16:45 W 6 G 14 10.00 Partly Cloudy SCT120 87.8 41 19% 84 30.18 0.0
28 15:45 S 10 10.00 Partly Cloudy SCT120 91.4 37.4 15% 87 30.12 0.0
28 14:45 S 10 10.00 Partly Cloudy SCT120 93.2 39.2 15% 89 30.14 0.0
28 13:47 E 7 10.00 Partly Cloudy SCT120 93.2 37.4 14% 89 30.16 0.0
28 12:46 N 5 10.00 A Few Clouds FEW120 93.2 37.4 14% 89 30.18 0.0
28 11:45 E 9 10.00 A Few Clouds FEW120 93.2 37.4 14% 89 30.19 0.0
28 09:45 S 6 10.00 Fair CLR 80.6 42.8 26% 79 30.22 0.0
28 08:45 S 6 10.00 Fair CLR 75.2 44.6 34% 77 30.23 0.0
28 07:45 Calm 10.00 Fair CLR 71.6 44.6 38% 30.22 0.0
28 06:54 N 6 10.00 Fair CLR 69.8 42.8 38% 30.22 0.0
28 06:15 W 3 10.00 Fair CLR 66.2 37.4 35% 30.21 0.0
28 05:55 W 3 10.00 Fair CLR 66.2 39.2 37% 30.21 0.0
28 05:45 Calm 10.00 Fair CLR 69.8 39.2 33% 30.2 0.0
28 05:35 Calm 10.00 Fair CLR 68 39.2 35% 30.2 0.0
28 05:15 Calm 10.00 Fair CLR 68 39.2 35% 30.21 0.0
28 04:55 W 5 10.00 Fair CLR 68 37.4 33% 30.19 0.0
28 04:35 W 5 10.00 Fair CLR 64.4 39.2 40% 30.2 0.0
28 04:15 Calm 10.00 Fair CLR 68 39.2 35% 30.2 0.0
28 03:55 W 5 10.00 Fair CLR 66.2 42.8 43% 30.21 0.0
28 03:35 Calm 10.00 Fair CLR 64.4 42.8 46% 30.21 0.0
28 03:15 Calm 10.00 Fair CLR 69.8 41 35% 30.21 0.0
28 02:55 NE 5 10.00 Fair CLR 68 42.8 40% 30.21 0.0
28 02:35 NE 8 10.00 Fair CLR 69.8 42.8 38% 30.21 0.0
28 02:15 NW 3 10.00 Fair CLR 69.8 41 35% 30.21 0.0
28 01:55 W 3 10.00 Fair CLR 69.8 41 35% 30.21 0.0
28 01:36 W 6 10.00 Fair CLR 66.2 44.6 46% 30.21 0.0
28 01:15 W 5 10.00 Fair CLR 69.8 44.6 40% 30.21 0.0
28 00:55 W 5 10.00 Fair CLR 68 44.6 43% 30.22 0.0
28 00:35 W 6 10.00 Fair CLR 64.4 44.6 49% 30.21 0.0
28 00:15 S 3 10.00 Fair CLR 69.8 46.4 43% 30.21 0.0
Date Time (mdt) Wind (mph) Vis. (mi.) Weather Sky Cond. Air Dwpt Max. Min. Relative Humidity Wind Chill (°F) Heat Index (°F) altimeter (in) sea level (mb) 1 hr 3 hr 6 hr
6 hour
Temperature (ºF) Pressure Precipitation (in)